CDT,Max TemperatureF,Mean TemperatureF,Min TemperatureF,Max Dew PointF,MeanDew PointF,Min DewpointF,Max Humidity, Mean Humidity, Min Humidity, Max Sea Level PressureIn, Mean Sea Level PressureIn, Min Sea Level PressureIn, Max VisibilityMiles, Mean VisibilityMiles, Min VisibilityMiles, Max Wind SpeedMPH, Mean Wind SpeedMPH, Max Gust SpeedMPH,PrecipitationIn, CloudCover, Events, WindDirDegrees
2013-10-1,86,72,60,68,63,57,97,77,39,30.01,29.97,29.91,10,9,2,13,7,20,0.00,3,,195
2013-10-2,87,72,58,71,63,58,98,76,39,30.08,30.02,29.97,10,6,0,9,4,,0.00,3,Fog,160
2013-10-3,83,74,65,73,68,65,98,88,60,29.97,29.92,29.85,10,9,1,32,6,40,0.82,5,Rain-Thunderstorm,181
2013-10-4,89,78,67,71,68,63,96,75,44,29.97,29.93,29.89,10,8,2,14,7,18,0.00,2,,174
2013-10-5,76,65,54,71,65,51,94,87,73,29.94,29.90,29.84,10,9,2,13,6,22,0.07,4,Rain,205
2013-10-6,55,50,45,51,45,38,96,83,54,29.88,29.84,29.80,10,10,3,15,5,26,0.08,5,Rain,240
2013-10-7,73,60,48,50,47,40,95,70,31,30.12,30.02,29.88,10,10,10,12,7,20,0.07,3,,258
2013-10-8,79,62,45,51,46,39,95,63,24,30.21,30.15,30.12,10,10,10,10,6,17,0.00,0,,194
2013-10-9,75,58,42,51,45,40,97,69,28,30.22,30.17,30.12,10,10,1,12,3,,0.00,0,,138
2013-10-10,79,62,44,56,50,43,97,74,32,30.18,30.10,30.02,10,10,5,12,2,,0.00,0,,166
2013-10-11,81,66,52,60,55,51,97,70,35,30.05,29.98,29.90,10,8,2,17,7,26,0.00,1,,161
2013-10-12,75,62,49,61,48,33,91,59,25,30.25,30.06,29.93,10,10,7,14,8,18,0.00,2,Rain,267
2013-10-13,70,54,39,40,35,25,91,56,19,30.44,30.37,30.25,10,10,2,9,5,,0.00,0,,347
2013-10-14,69,51,34,45,38,32,94,61,28,30.41,30.27,30.06,10,10,10,15,5,23,0.00,1,,109
2013-10-15,71,60,48,64,52,41,97,75,43,30.06,29.93,29.85,10,8,1,15,9,26,0.15,5,Rain,212
2013-10-16,55,50,46,45,43,41,81,69,63,30.03,29.99,29.96,10,10,10,15,9,21,0.00,8,,268
2013-10-17,66,55,44,48,42,32,94,70,29,30.00,29.93,29.87,10,10,7,18,5,23,0.03,4,Rain,238
2013-10-18,57,50,43,44,40,35,93,73,44,30.05,30.01,29.91,10,10,7,15,8,18,0.00,5,Rain,272
2013-10-19,59,48,37,42,37,32,96,70,37,30.01,29.93,29.87,10,10,10,18,8,24,0.01,4,Rain,236
2013-10-20,72,56,39,48,40,36,93,59,27,29.90,29.84,29.75,10,10,10,17,7,24,0.00,4,Rain,221
2013-10-21,57,44,32,48,33,22,89,63,31,30.06,30.01,29.88,10,10,5,18,8,25,0.00,3,,295
2013-10-22,46,38,31,45,38,29,99,92,81,30.05,29.96,29.83,10,9,4,16,4,23,0.17,7,Rain,11
2013-10-23,47,40,33,38,33,28,92,76,49,30.13,30.08,30.02,10,10,10,15,9,20,0.00,6,Rain,283
2013-10-24,42,34,27,38,28,23,91,68,47,30.40,30.27,30.11,10,10,4,17,9,24,0.00,6,Rain,297
2013-10-25,57,41,26,33,26,21,95,60,26,30.47,30.35,30.16,10,10,10,14,7,23,0.00,0,,235
2013-10-26,58,44,32,36,29,23,84,51,27,30.17,30.07,30.00,10,10,10,24,12,31,0.00,1,,272
2013-10-27,60,44,28,34,29,26,94,63,28,30.14,30.07,30.00,10,10,7,12,5,16,0.00,0,,229
2013-10-28,67,48,30,40,31,25,90,61,20,30.30,30.19,30.07,10,10,5,12,2,16,0.00,0,,88
2013-10-29,56,46,37,54,44,37,99,84,52,30.30,30.21,30.10,10,6,2,12,8,,0.00,4,Rain,101
2013-10-30,65,60,54,65,58,54,99,98,97,30.10,29.97,29.78,7,2,0,10,7,,1.19,8,Fog-Rain-Thunderstorm,132
2013-10-31,65,56,47,65,57,46,99,98,93,29.77,29.56,29.39,10,9,2,20,9,22,0.84,8,Rain,252